Time;durP1;ratioP1;P1;durP2;ratioP2;P2;SDS_P1;SDS_P2;PMS_P1;PMS_P2;Temp;Humidity;BMP_temperature;BMP_pressure;BME280_temperature;BME280_humidity;BME280_pressure;Samples;Min_cycle;Max_cycle;Signal;HPM_P1;HPM_P2
2022/07/04 00:02:13;;;;;;;;;;;;;;;26.27;59.27;101543.19;5053419;28;20308;-80
2022/07/04 00:04:42;;;;;;;;;;;;;;;26.25;59.02;101542.31;5032826;28;19913;-80
2022/07/04 00:07:07;;;;;;;;;;;;;;;26.25;58.65;101539.63;5051705;28;20303;-80
2022/07/04 00:09:32;;;;;;;;;;;;;;;26.19;58.49;101542.28;5060467;28;19913;-78
2022/07/04 00:11:58;;;;;;;;;;;;;;;26.22;58.88;101541.41;5067943;28;19916;-80
2022/07/04 00:14:23;;;;;;;;;;;;;;;26.19;58.40;101543.19;5062069;28;19917;-80
2022/07/04 00:16:49;;;;;;;;;;;;;;;26.20;58.72;101541.38;5046368;28;20395;-81
2022/07/04 00:19:14;;;;;;;;;;;;;;;26.20;58.88;101544.06;5048183;28;19913;-81
2022/07/04 00:21:40;;;;;;;;;;;;;;;26.20;58.89;101533.34;5036985;28;19963;-81
2022/07/04 00:24:05;;;;;;;;;;;;;;;26.18;59.04;101533.38;5022299;28;19966;-80
2022/07/04 00:26:30;;;;;;;;;;;;;;;26.17;58.88;101526.22;5050417;28;19924;-80
2022/07/04 00:28:56;;;;;;;;;;;;;;;26.17;58.93;101525.34;5046338;28;19913;-80
2022/07/04 00:31:21;;;;;;;;;;;;;;;26.16;58.85;101529.81;5049991;28;19931;-79
2022/07/04 00:33:47;;;;;;;;;;;;;;;26.14;58.68;101523.56;5052374;28;19919;-81
2022/07/04 00:36:12;;;;;;;;;;;;;;;26.14;58.56;101522.63;5032496;28;19919;-80
2022/07/04 00:38:38;;;;;;;;;;;;;;;26.14;58.78;101530.66;5023691;28;20307;-81
2022/07/04 00:41:03;;;;;;;;;;;;;;;26.13;58.92;101521.75;5032730;28;20292;-81
2022/07/04 00:43:29;;;;;;;;;;;;;;;26.11;58.31;101519.97;5032844;28;19912;-80
2022/07/04 00:45:55;;;;;;;;;;;;;;;26.12;58.92;101521.72;5046749;28;19966;-80
2022/07/04 00:48:20;;;;;;;;;;;;;;;26.11;58.59;101519.97;5048321;28;19913;-81
2022/07/04 00:50:46;;;;;;;;;;;;;;;26.10;58.64;101523.50;5041799;28;19964;-80
2022/07/04 00:53:15;;;;;;;;;;;;;;;26.08;58.52;101523.53;5038506;28;19986;-81
2022/07/04 00:55:41;;;;;;;;;;;;;;;26.08;58.89;101522.66;5052957;28;19917;-81
2022/07/04 00:58:06;;;;;;;;;;;;;;;26.00;58.03;101527.97;5051540;28;19999;-81
2022/07/04 01:00:32;;;;;;;;;;;;;;;26.00;57.82;101526.19;5048629;28;19912;-81
2022/07/04 01:02:57;;;;;;;;;;;;;;;26.03;58.30;101519.06;5053816;28;19960;-80
2022/07/04 01:05:23;;;;;;;;;;;;;;;26.02;58.47;101520.84;5046018;28;19935;-80
2022/07/04 01:07:49;;;;;;;;;;;;;;;26.02;58.44;101518.16;5054152;28;20445;-81
2022/07/04 01:10:15;;;;;;;;;;;;;;;26.00;58.53;101511.91;5035535;28;20003;-81
2022/07/04 01:12:40;;;;;;;;;;;;;;;26.00;57.93;101517.28;5052459;28;20019;-81
2022/07/04 01:15:06;;;;;;;;;;;;;;;25.98;58.50;101511.03;5053485;28;19919;-81
2022/07/04 01:17:32;;;;;;;;;;;;;;;25.98;58.52;101516.38;5041294;28;19976;-80
2022/07/04 01:19:57;;;;;;;;;;;;;;;25.97;58.85;101511.88;5057579;28;20383;-81
2022/07/04 01:22:23;;;;;;;;;;;;;;;25.97;57.97;101511.88;5036449;28;20003;-81
2022/07/04 01:24:49;;;;;;;;;;;;;;;25.95;58.46;101505.63;5065934;28;19916;-81
2022/07/04 01:27:14;;;;;;;;;;;;;;;25.95;58.70;101511.00;5021266;28;20415;-81
2022/07/04 01:29:40;;;;;;;;;;;;;;;25.93;58.35;101505.66;5036437;28;19947;-81
2022/07/04 01:32:06;;;;;;;;;;;;;;;25.91;58.38;101507.44;5051166;28;19912;-81
2022/07/04 01:34:31;;;;;;;;;;;;;;;25.92;58.63;101511.88;5036088;28;19909;-80
2022/07/04 01:36:59;;;;;;;;;;;;;;;25.91;58.29;101511.91;5030071;28;20532;-81
2022/07/04 01:39:24;;;;;;;;;;;;;;;25.89;58.00;101516.38;5035943;28;19916;-80
2022/07/04 01:41:50;;;;;;;;;;;;;;;25.90;58.54;101512.78;5041203;28;19932;-80
2022/07/04 01:44:15;;;;;;;;;;;;;;;25.88;58.39;101506.50;5046223;28;19963;-82
2022/07/04 01:46:41;;;;;;;;;;;;;;;25.86;58.34;101506.47;5033255;28;19995;-81
2022/07/04 01:49:06;;;;;;;;;;;;;;;25.86;58.55;101509.16;5047486;28;19940;-82
2022/07/04 01:51:32;;;;;;;;;;;;;;;25.85;58.48;101511.84;5044660;28;19920;-81
2022/07/04 01:53:57;;;;;;;;;;;;;;;25.84;58.29;101507.38;5046657;28;19936;-81
2022/07/04 01:56:22;;;;;;;;;;;;;;;25.84;58.30;101507.38;5035459;28;20403;-81
2022/07/04 01:58:48;;;;;;;;;;;;;;;25.83;57.91;101506.50;5053429;28;20372;-82
2022/07/04 02:01:31;;;;;;;;;;;;;;;25.80;57.79;101506.47;5057738;28;20404;-82
2022/07/04 02:03:57;;;;;;;;;;;;;;;25.81;58.39;101502.91;5048879;28;19909;-81
2022/07/04 02:06:23;;;;;;;;;;;;;;;25.79;57.96;101500.22;5031389;28;19935;-81
2022/07/04 02:13:00;;;;;;;;;;;;;;;25.77;58.04;101512.69;5047315;28;19919;-82
2022/07/04 02:14:18;;;;;;;;;;;;;;;25.74;57.79;101512.72;5041257;28;20288;-80
2022/07/04 02:16:43;;;;;;;;;;;;;;;25.72;57.29;101517.16;5052810;28;19999;-81
2022/07/04 02:19:09;;;;;;;;;;;;;;;25.73;57.59;101515.38;5033884;28;19920;-81
2022/07/04 02:21:35;;;;;;;;;;;;;;;25.71;57.78;101519.81;5028603;28;19954;-82
2022/07/04 02:24:00;;;;;;;;;;;;;;;25.71;58.16;101525.16;5053355;28;19952;-82
2022/07/04 02:26:26;;;;;;;;;;;;;;;25.69;58.07;101530.50;5037151;28;19916;-81
2022/07/04 02:28:52;;;;;;;;;;;;;;;25.70;58.40;101534.09;5051740;28;20298;-81
2022/07/04 02:31:17;;;;;;;;;;;;;;;25.69;58.15;101530.50;5052328;28;19991;-82
2022/07/04 02:33:42;;;;;;;;;;;;;;;25.70;58.64;101523.41;5053225;28;19973;-81
2022/07/04 02:36:08;;;;;;;;;;;;;;;25.66;58.45;101527.84;5052698;28;20327;-81
2022/07/04 02:38:33;;;;;;;;;;;;;;;25.64;57.88;101524.25;5051661;28;19971;-82
2022/07/04 02:40:59;;;;;;;;;;;;;;;25.64;58.60;101531.41;5054702;28;20466;-82
2022/07/04 02:43:24;;;;;;;;;;;;;;;25.62;58.32;101536.72;5052157;28;20307;-82
2022/07/04 02:45:49;;;;;;;;;;;;;;;25.61;58.01;101532.25;5044736;28;19935;-82
2022/07/04 02:48:15;;;;;;;;;;;;;;;25.58;57.94;101535.81;5046839;28;20390;-82
2022/07/04 02:50:40;;;;;;;;;;;;;;;25.58;57.68;101535.81;5037453;28;20445;-80
2022/07/04 02:53:06;;;;;;;;;;;;;;;25.58;58.22;101535.81;5045395;28;20418;-81
2022/07/04 02:55:31;;;;;;;;;;;;;;;25.55;57.92;101535.81;5026467;28;19921;-81
2022/07/04 02:57:57;;;;;;;;;;;;;;;25.53;57.64;101532.25;5053297;28;19935;-81
2022/07/04 03:00:22;;;;;;;;;;;;;;;25.54;57.92;101538.47;5054437;28;20377;-81
2022/07/04 03:02:48;;;;;;;;;;;;;;;25.54;57.43;101536.69;5049420;28;20364;-81
2022/07/04 03:05:13;;;;;;;;;;;;;;;25.57;57.78;101539.41;5025744;28;20332;-82
2022/07/04 03:07:38;;;;;;;;;;;;;;;25.52;57.79;101541.13;5027905;28;20324;-81
2022/07/04 03:10:04;;;;;;;;;;;;;;;25.52;57.85;101545.59;5051576;28;19917;-81
2022/07/04 03:12:29;;;;;;;;;;;;;;;25.51;57.62;101542.03;5033002;28;20428;-81
2022/07/04 03:14:55;;;;;;;;;;;;;;;25.53;57.71;101544.72;5033654;28;19915;-81
2022/07/04 03:17:20;;;;;;;;;;;;;;;25.50;57.80;101539.34;5052087;28;19912;-82
2022/07/04 03:19:46;;;;;;;;;;;;;;;25.48;58.14;101558.06;5050930;28;20399;-81
2022/07/04 03:22:12;;;;;;;;;;;;;;;25.48;57.82;101550.03;5051416;28;19917;-81
2022/07/04 03:24:37;;;;;;;;;;;;;;;25.47;57.96;101558.97;5050694;28;19919;-82
2022/07/04 03:27:03;;;;;;;;;;;;;;;25.46;57.91;101551.81;5032146;28;19913;-82
2022/07/04 03:29:28;;;;;;;;;;;;;;;25.46;58.23;101558.94;5044491;28;19920;-82
2022/07/04 03:31:54;;;;;;;;;;;;;;;25.44;58.32;101553.56;5049709;28;19921;-82
2022/07/04 03:34:19;;;;;;;;;;;;;;;25.45;58.25;101557.16;5051002;28;19912;-81
2022/07/04 03:36:45;;;;;;;;;;;;;;;25.44;58.25;101556.25;5033026;28;19936;-82
2022/07/04 03:39:10;;;;;;;;;;;;;;;25.42;57.66;101560.72;5051902;28;19913;-82
2022/07/04 03:41:54;;;;;;;;;;;;;;;25.40;57.83;101554.47;5035390;28;20386;-82
2022/07/04 03:44:21;;;;;;;;;;;;;;;25.41;57.73;101552.69;5045529;28;19920;-82
2022/07/04 03:46:46;;;;;;;;;;;;;;;25.42;58.23;101552.69;5064527;28;19936;-81
2022/07/04 03:49:12;;;;;;;;;;;;;;;25.39;57.76;101555.34;5074201;28;19913;-82
2022/07/04 03:51:37;;;;;;;;;;;;;;;25.36;58.07;101553.56;5035016;28;20375;-81
2022/07/04 03:54:02;;;;;;;;;;;;;;;25.35;57.96;101549.06;5051252;28;19913;-81
2022/07/04 03:56:28;;;;;;;;;;;;;;;25.35;58.03;101545.50;5048944;28;20296;-81
2022/07/04 03:58:53;;;;;;;;;;;;;;;25.35;58.00;101542.84;5050126;28;19912;-81
2022/07/04 04:01:19;;;;;;;;;;;;;;;25.33;58.10;101544.59;5052755;28;19919;-82
2022/07/04 04:06:29;;;;;;;;;;;;;;;25.32;58.28;101553.53;5043116;28;19920;-82
2022/07/04 04:08:54;;;;;;;;;;;;;;;25.32;58.25;101554.41;5032202;28;19917;-82
2022/07/04 04:11:19;;;;;;;;;;;;;;;25.31;58.18;101555.28;5015907;28;19916;-83
2022/07/04 04:13:45;;;;;;;;;;;;;;;25.31;58.61;101551.72;5049869;28;19939;-82
2022/07/04 04:16:10;;;;;;;;;;;;;;;25.31;58.17;101557.06;5054230;28;20024;-82
2022/07/04 04:18:36;;;;;;;;;;;;;;;25.30;58.41;101553.50;5037858;28;20387;-82
2022/07/04 04:21:02;;;;;;;;;;;;;;;25.30;58.46;101560.66;5036464;28;19935;-82
2022/07/04 04:23:28;;;;;;;;;;;;;;;25.26;58.06;101567.75;5058024;28;20276;-82
2022/07/04 04:25:53;;;;;;;;;;;;;;;25.27;58.35;101564.16;5035920;28;19982;-82
2022/07/04 04:28:18;;;;;;;;;;;;;;;25.28;58.43;101567.75;5040042;28;19912;-82
2022/07/04 04:30:44;;;;;;;;;;;;;;;25.26;58.67;101559.72;5036362;28;19963;-82
2022/07/04 04:33:09;;;;;;;;;;;;;;;25.26;58.42;101562.41;5020613;28;20339;-82
2022/07/04 04:35:35;;;;;;;;;;;;;;;25.26;58.58;101562.41;5055805;28;19932;-80
2022/07/04 04:38:00;;;;;;;;;;;;;;;25.25;58.40;101557.03;5029468;28;19928;-81
2022/07/04 04:40:26;;;;;;;;;;;;;;;25.24;58.42;101560.59;5048707;28;19920;-80
2022/07/04 04:42:51;;;;;;;;;;;;;;;25.25;58.62;101559.72;5053423;28;19961;-81
2022/07/04 04:45:16;;;;;;;;;;;;;;;25.25;58.90;101559.72;5053397;28;19935;-86
2022/07/04 04:47:43;;;;;;;;;;;;;;;25.23;58.92;101557.06;5059748;28;20325;-81
2022/07/04 04:50:11;;;;;;;;;;;;;;;25.27;58.90;101568.63;5052796;28;19970;-83
2022/07/04 04:52:37;;;;;;;;;;;;;;;25.28;58.74;101562.41;5027047;28;19912;-80
2022/07/04 04:55:03;;;;;;;;;;;;;;;25.30;58.59;101555.31;5035485;28;19912;-81
2022/07/04 04:57:28;;;;;;;;;;;;;;;25.28;59.17;101560.63;5038247;28;20249;-81
2022/07/04 04:59:53;;;;;;;;;;;;;;;25.20;56.23;101557.00;5061381;28;20120;-86
2022/07/04 05:02:19;;;;;;;;;;;;;;;25.09;58.13;101558.69;5061028;28;20488;-83
2022/07/04 05:04:44;;;;;;;;;;;;;;;25.17;57.41;101560.53;5054609;28;19990;-85
2022/07/04 05:07:12;;;;;;;;;;;;;;;25.13;57.91;101563.19;5054484;28;19909;-83
2022/07/04 05:09:39;;;;;;;;;;;;;;;25.11;57.59;101556.94;5055841;28;19912;-83
2022/07/04 05:12:04;;;;;;;;;;;;;;;25.10;57.72;101556.00;5054102;28;20359;-83
2022/07/04 05:14:30;;;;;;;;;;;;;;;25.16;57.80;101560.50;5053590;28;19913;-83
2022/07/04 05:16:55;;;;;;;;;;;;;;;25.15;58.16;101556.97;5050624;28;19920;-84
2022/07/04 05:19:20;;;;;;;;;;;;;;;25.18;58.06;101556.97;5017505;28;20303;-82
2022/07/04 05:21:46;;;;;;;;;;;;;;;25.17;58.27;101552.50;5062010;28;19909;-83
2022/07/04 05:24:11;;;;;;;;;;;;;;;25.15;58.12;101548.06;5032773;28;20315;-82
2022/07/04 05:26:37;;;;;;;;;;;;;;;25.16;58.37;101553.38;5025791;28;19932;-82
2022/07/04 05:29:02;;;;;;;;;;;;;;;25.15;58.60;101554.28;5049783;28;19913;-82
2022/07/04 05:31:28;;;;;;;;;;;;;;;25.14;58.61;101551.59;5049800;28;20400;-83
2022/07/04 05:33:59;;;;;;;;;;;;;;;25.13;58.93;101550.69;5052904;28;19943;-84
2022/07/04 05:36:24;;;;;;;;;;;;;;;25.12;58.75;101553.38;5047652;28;20380;-85
2022/07/04 05:38:50;;;;;;;;;;;;;;;25.08;58.91;101549.78;5018944;28;19923;-83
2022/07/04 05:41:15;;;;;;;;;;;;;;;25.14;59.02;101554.25;5046659;28;20347;-83
2022/07/04 05:43:41;;;;;;;;;;;;;;;25.12;59.26;101550.69;5052988;28;19987;-82
2022/07/04 05:46:07;;;;;;;;;;;;;;;25.14;59.24;101559.59;5053103;28;19966;-83
2022/07/04 05:48:32;;;;;;;;;;;;;;;25.11;59.33;101562.28;5051436;28;20364;-83
2022/07/04 05:50:57;;;;;;;;;;;;;;;25.08;59.30;101563.16;5036817;28;19921;-83
2022/07/04 05:53:23;;;;;;;;;;;;;;;25.07;59.46;101565.81;5041662;28;19932;-82
2022/07/04 05:55:48;;;;;;;;;;;;;;;25.10;59.20;101566.72;5046013;28;20298;-83
2022/07/04 05:58:14;;;;;;;;;;;;;;;25.10;59.12;101563.16;5060934;28;19912;-82
2022/07/04 06:00:39;;;;;;;;;;;;;;;25.11;59.33;101559.59;5036667;28;20295;-82
2022/07/04 06:03:05;;;;;;;;;;;;;;;25.13;59.15;101563.19;5057364;28;19966;-82
2022/07/04 06:05:31;;;;;;;;;;;;;;;25.13;59.28;101564.06;5048030;28;19920;-81
2022/07/04 06:07:56;;;;;;;;;;;;;;;25.11;59.03;101560.50;5050605;28;19909;-83
2022/07/04 06:10:22;;;;;;;;;;;;;;;25.07;59.42;101564.03;5035176;28;19939;-82
2022/07/04 06:12:47;;;;;;;;;;;;;;;25.11;59.35;101565.84;5027120;28;19916;-83
2022/07/04 06:15:13;;;;;;;;;;;;;;;25.10;59.61;101566.72;5035389;28;20003;-82
2022/07/04 06:17:38;;;;;;;;;;;;;;;25.14;59.15;101560.50;5058976;28;19915;-83
2022/07/04 06:20:04;;;;;;;;;;;;;;;25.08;60.05;101555.16;5038816;28;20490;-83
2022/07/04 06:22:39;;;;;;;;;;;;;;;25.07;60.02;101553.34;5052778;28;20314;-82
2022/07/04 06:25:05;;;;;;;;;;;;;;;25.08;59.89;101544.44;5052905;28;20384;-81
2022/07/04 06:27:31;;;;;;;;;;;;;;;25.08;60.00;101549.78;5035058;28;19916;-83
2022/07/04 06:29:56;;;;;;;;;;;;;;;25.08;59.92;101560.50;5053055;28;20383;-82
2022/07/04 06:32:21;;;;;;;;;;;;;;;25.06;60.33;101562.25;5052762;28;19974;-82
2022/07/04 06:37:30;;;;;;;;;;;;;;;25.14;60.17;101559.59;5051691;28;20413;-82
2022/07/04 06:39:56;;;;;;;;;;;;;;;25.16;59.88;101558.72;5035373;28;19948;-81
2022/07/04 06:42:21;;;;;;;;;;;;;;;25.13;60.34;101552.50;5052810;28;20299;-82
2022/07/04 06:44:47;;;;;;;;;;;;;;;25.12;60.40;101559.59;5052620;28;20372;-82
2022/07/04 06:47:12;;;;;;;;;;;;;;;25.10;60.25;101557.81;5052440;28;19995;-81
2022/07/04 06:49:38;;;;;;;;;;;;;;;25.10;60.30;101561.34;5046651;28;19909;-82
2022/07/04 06:52:03;;;;;;;;;;;;;;;25.13;60.29;101557.84;5038133;28;20593;-81
2022/07/04 06:54:29;;;;;;;;;;;;;;;25.07;60.53;101564.03;5052175;28;20407;-81
2022/07/04 06:56:54;;;;;;;;;;;;;;;25.10;60.49;101566.72;5052358;28;19916;-82
2022/07/04 06:59:19;;;;;;;;;;;;;;;25.07;60.73;101563.13;5029868;28;20354;-82
2022/07/04 07:01:45;;;;;;;;;;;;;;;25.01;61.00;101557.75;5050822;28;19908;-81
2022/07/04 07:04:10;;;;;;;;;;;;;;;25.06;60.70;101553.31;5051800;28;19909;-81
2022/07/04 07:06:36;;;;;;;;;;;;;;;25.07;60.68;101557.78;5051239;28;19932;-83
2022/07/04 07:09:01;;;;;;;;;;;;;;;25.01;60.88;101560.41;5034118;28;19909;-82
2022/07/04 07:11:27;;;;;;;;;;;;;;;25.05;60.88;101552.44;5034421;28;19963;-82
2022/07/04 07:13:52;;;;;;;;;;;;;;;25.10;60.63;101555.13;5037690;28;19912;-84
2022/07/04 07:16:18;;;;;;;;;;;;;;;25.09;60.98;101558.69;5057250;28;19970;-82
2022/07/04 07:18:44;;;;;;;;;;;;;;;25.06;61.06;101556.91;5034949;28;20299;-81
2022/07/04 07:21:09;;;;;;;;;;;;;;;25.10;60.93;101558.69;5035249;28;19913;-82
2022/07/04 07:23:37;;;;;;;;;;;;;;;25.15;60.83;101558.75;5043328;28;19912;-81
2022/07/04 07:26:02;;;;;;;;;;;;;;;25.12;61.07;101556.03;5030230;28;20003;-81
2022/07/04 07:28:28;;;;;;;;;;;;;;;25.11;61.18;101563.16;5051453;28;20023;-82
2022/07/04 07:30:53;;;;;;;;;;;;;;;25.10;61.11;101560.47;5053963;28;19913;-82
2022/07/04 07:33:19;;;;;;;;;;;;;;;25.10;61.27;101558.69;5034025;28;19912;-82
2022/07/04 07:35:44;;;;;;;;;;;;;;;25.10;61.20;101563.16;5032467;28;19923;-82
2022/07/04 07:38:18;;;;;;;;;;;;;;;25.12;61.03;101564.94;5040313;28;19917;-81
2022/07/04 07:40:44;;;;;;;;;;;;;;;25.14;61.17;101548.91;5027720;28;19916;-80
2022/07/04 07:43:09;;;;;;;;;;;;;;;25.12;61.30;101554.25;5051251;28;19913;-82
2022/07/04 07:45:35;;;;;;;;;;;;;;;25.15;61.23;101561.41;5051118;28;19916;-81
2022/07/04 07:48:00;;;;;;;;;;;;;;;25.14;61.35;101551.59;5050232;28;19917;-80
2022/07/04 07:50:26;;;;;;;;;;;;;;;25.12;61.12;101559.59;5038261;28;19920;-81
2022/07/04 07:52:51;;;;;;;;;;;;;;;25.20;61.16;101559.69;5014380;28;20384;-82
2022/07/04 07:55:17;;;;;;;;;;;;;;;25.19;61.32;101557.88;5041673;28;20050;-83
2022/07/04 07:57:42;;;;;;;;;;;;;;;25.16;61.39;101553.38;5051071;28;19940;-82
2022/07/04 08:00:08;;;;;;;;;;;;;;;25.21;61.03;101560.56;5045914;28;20006;-82
2022/07/04 08:05:17;;;;;;;;;;;;;;;25.23;61.13;101554.38;5046321;28;19915;-82
2022/07/04 08:07:42;;;;;;;;;;;;;;;25.24;61.22;101563.28;5038103;28;19912;-82
2022/07/04 08:10:08;;;;;;;;;;;;;;;25.23;61.17;101558.81;5050321;28;19912;-82
2022/07/04 08:12:33;;;;;;;;;;;;;;;25.24;61.17;101558.81;5049393;28;20528;-81
2022/07/04 08:14:59;;;;;;;;;;;;;;;25.28;60.93;101560.63;5033555;28;19915;-81
2022/07/04 08:17:24;;;;;;;;;;;;;;;25.28;60.99;101555.28;5032139;28;20295;-82
2022/07/04 08:19:52;;;;;;;;;;;;;;;25.28;61.27;101552.63;5045642;28;19913;-81
2022/07/04 08:22:18;;;;;;;;;;;;;;;25.31;61.06;101554.41;5051023;28;20390;-82
2022/07/04 08:24:43;;;;;;;;;;;;;;;25.30;61.23;101549.97;5050957;28;19947;-81
2022/07/04 08:27:10;;;;;;;;;;;;;;;25.28;61.27;101544.59;5050498;28;20031;-80
2022/07/04 08:29:36;;;;;;;;;;;;;;;25.28;61.05;101547.25;5032906;28;20514;-80
2022/07/04 08:32:01;;;;;;;;;;;;;;;25.30;61.30;101553.50;5049421;28;19956;-82
2022/07/04 08:34:27;;;;;;;;;;;;;;;25.30;61.37;101558.88;5044784;28;19913;-83
2022/07/04 08:36:52;;;;;;;;;;;;;;;25.29;61.59;101556.16;5043655;28;20024;-82
2022/07/04 08:39:18;;;;;;;;;;;;;;;25.27;61.66;101552.59;5047915;28;20284;-82
2022/07/04 08:41:43;;;;;;;;;;;;;;;25.27;61.27;101563.28;5031267;28;19974;-81
2022/07/04 08:44:11;;;;;;;;;;;;;;;25.33;61.43;101557.97;5025187;28;20356;-81
2022/07/04 08:46:40;;;;;;;;;;;;;;;25.38;61.16;101562.47;5025422;28;20288;-81
2022/07/04 08:49:09;;;;;;;;;;;;;;;25.34;61.20;101555.31;5032849;28;20277;-82
2022/07/04 08:51:41;;;;;;;;;;;;;;;25.36;61.33;101555.34;5026567;28;19955;-82
2022/07/04 08:58:25;;;;;;;;;;;;;;;25.35;61.32;101559.78;5049405;28;20447;-81
2022/07/04 08:59:36;;;;;;;;;;;;;;;25.38;61.04;101561.59;5034223;28;19919;-81
2022/07/04 09:02:02;;;;;;;;;;;;;;;25.39;61.09;101560.69;5038587;28;20003;-82
2022/07/04 09:04:27;;;;;;;;;;;;;;;25.38;61.44;101564.25;5052898;28;19919;-80
2022/07/04 09:06:53;;;;;;;;;;;;;;;25.39;61.23;101569.59;5053326;28;19912;-81
2022/07/04 09:09:18;;;;;;;;;;;;;;;25.41;60.96;101561.59;5054717;28;20311;-81
2022/07/04 09:11:44;;;;;;;;;;;;;;;25.38;61.44;101564.25;5056176;28;20441;-81
2022/07/04 09:14:09;;;;;;;;;;;;;;;25.41;61.28;101561.59;5049739;28;19920;-81
2022/07/04 09:16:34;;;;;;;;;;;;;;;25.46;61.19;101564.28;5055644;28;20453;-81
2022/07/04 09:19:00;;;;;;;;;;;;;;;25.46;60.92;101551.81;5053796;28;19920;-82
2022/07/04 09:21:42;;;;;;;;;;;;;;;25.45;61.00;101551.81;5035347;28;20361;-81
2022/07/04 09:24:08;;;;;;;;;;;;;;;25.46;60.98;101553.59;5054344;28;19908;-82
2022/07/04 09:26:34;;;;;;;;;;;;;;;25.43;61.33;101561.63;5035149;28;20581;-83
2022/07/04 09:28:59;;;;;;;;;;;;;;;25.43;61.40;101551.81;5041435;28;19924;-81
2022/07/04 09:31:25;;;;;;;;;;;;;;;25.42;61.16;101551.78;5052917;28;19928;-82
2022/07/04 09:33:51;;;;;;;;;;;;;;;25.43;61.09;101550.91;5053831;28;20415;-81
2022/07/04 09:36:18;;;;;;;;;;;;;;;25.41;61.34;101552.69;5053621;28;19916;-82
2022/07/04 09:38:44;;;;;;;;;;;;;;;25.42;61.27;101554.47;5055775;28;20410;-82
2022/07/04 09:44:00;;;;;;;;;;;;;;;25.45;61.23;101539.34;5060543;28;20306;-82
2022/07/04 09:46:25;;;;;;;;;;;;;;;25.50;61.22;101540.22;5055489;28;19923;-82
2022/07/04 09:48:51;;;;;;;;;;;;;;;25.47;61.18;101537.56;5058846;28;19921;-83
2022/07/04 09:51:40;;;;;;;;;;;;;;;25.49;61.03;101548.28;5026619;28;19921;-81
2022/07/04 09:54:15;;;;;;;;;;;;;;;25.46;60.98;101551.81;5046477;28;20391;-81
2022/07/04 09:56:48;;;;;;;;;;;;;;;25.47;61.27;101553.59;5017912;28;19966;-82
2022/07/04 09:59:13;;;;;;;;;;;;;;;25.50;60.90;101558.97;5054909;28;19921;-82
2022/07/04 10:01:41;;;;;;;;;;;;;;;25.52;61.24;101561.66;5036353;28;19963;-81
2022/07/04 10:04:07;;;;;;;;;;;;;;;25.46;61.37;101565.16;5053784;28;19940;-82
2022/07/04 10:06:33;;;;;;;;;;;;;;;25.46;61.12;101556.25;5040211;28;19913;-83
2022/07/04 10:09:09;;;;;;;;;;;;;;;25.53;61.33;101558.09;5058990;28;19932;-82
2022/07/04 10:11:36;;;;;;;;;;;;;;;25.49;61.47;101562.53;5052388;28;20324;-82
2022/07/04 10:14:02;;;;;;;;;;;;;;;25.52;61.30;101559.84;5044207;28;20046;-83
2022/07/04 10:16:28;;;;;;;;;;;;;;;25.49;61.60;101567.88;5056335;28;19908;-83
2022/07/04 10:18:53;;;;;;;;;;;;;;;25.45;61.54;101563.41;5034910;28;20384;-82
2022/07/04 10:21:19;;;;;;;;;;;;;;;25.46;61.69;101559.81;5034550;28;19916;-80
2022/07/04 10:23:44;;;;;;;;;;;;;;;25.45;61.84;101551.81;5052866;28;19913;-82
2022/07/04 10:26:09;;;;;;;;;;;;;;;25.51;61.59;101563.44;5017212;28;19913;-81
2022/07/04 10:28:37;;;;;;;;;;;;;;;25.49;61.43;101570.56;5032825;28;20590;-83
2022/07/04 10:31:03;;;;;;;;;;;;;;;25.53;61.42;101568.81;5034010;28;19974;-82
2022/07/04 10:33:28;;;;;;;;;;;;;;;25.38;61.50;101542.88;5051684;28;19917;-83
2022/07/04 10:36:04;;;;;;;;;;;;;;;25.50;61.79;101568.78;5024116;28;19913;-82
2022/07/04 10:38:30;;;;;;;;;;;;;;;25.49;61.77;101567.00;5031506;28;19917;-81
2022/07/04 10:40:57;;;;;;;;;;;;;;;25.54;61.57;101562.56;5052587;28;19912;-82
2022/07/04 10:43:35;;;;;;;;;;;;;;;25.51;61.50;101568.78;5024286;28;19913;-82
2022/07/04 10:46:16;;;;;;;;;;;;;;;25.54;61.56;101567.91;5045132;28;19909;-82
2022/07/04 10:48:50;;;;;;;;;;;;;;;25.52;61.64;101564.31;5047738;28;19928;-82
2022/07/04 10:51:20;;;;;;;;;;;;;;;25.49;62.04;101567.88;5047352;28;19921;-82
2022/07/04 10:54:02;;;;;;;;;;;;;;;25.51;61.59;101566.13;5055914;28;19913;-83
2022/07/04 10:56:27;;;;;;;;;;;;;;;25.56;61.74;101567.00;5050828;28;19962;-81
2022/07/04 10:58:53;;;;;;;;;;;;;;;25.58;61.59;101567.03;5051543;28;19916;-82
2022/07/04 11:01:21;;;;;;;;;;;;;;;25.57;61.79;101551.88;5035567;28;19917;-81
2022/07/04 11:03:50;;;;;;;;;;;;;;;25.53;61.60;101553.63;5058927;28;19966;-81
2022/07/04 11:06:37;;;;;;;;;;;;;;;25.64;61.72;101550.13;5046581;28;19916;-82
2022/07/04 11:09:12;;;;;;;;;;;;;;;25.60;61.42;101552.78;5051714;28;19913;-82
2022/07/04 11:11:47;;;;;;;;;;;;;;;25.56;61.70;101553.63;5045639;28;19920;-83
2022/07/04 11:14:31;;;;;;;;;;;;;;;25.61;61.59;101556.31;5042904;28;19908;-82
2022/07/04 11:16:56;;;;;;;;;;;;;;;25.64;61.50;101553.69;5019361;28;19909;-82
2022/07/04 11:19:22;;;;;;;;;;;;;;;25.66;61.52;101548.34;5050764;28;19916;-83
2022/07/04 11:21:48;;;;;;;;;;;;;;;25.67;61.33;101551.00;5015979;28;19999;-82
2022/07/04 11:24:13;;;;;;;;;;;;;;;25.67;61.33;101548.34;5032632;28;19915;-81
2022/07/04 11:26:38;;;;;;;;;;;;;;;25.68;61.37;101547.47;5050405;28;19913;-82
2022/07/04 11:29:04;;;;;;;;;;;;;;;25.70;61.10;101544.81;5050565;28;20358;-82
2022/07/04 11:31:40;;;;;;;;;;;;;;;25.70;61.17;101547.47;5047681;28;20272;-82
2022/07/04 11:34:06;;;;;;;;;;;;;;;25.71;61.26;101546.56;5061790;28;20016;-81
2022/07/04 11:36:31;;;;;;;;;;;;;;;25.70;61.24;101544.81;5032291;28;19995;-80
2022/07/04 11:38:57;;;;;;;;;;;;;;;25.76;61.45;101542.13;5049836;28;19928;-81
2022/07/04 11:47:03;;;;;;;;;;;;;;;25.72;61.11;101541.25;5033686;28;19915;-82
2022/07/04 11:49:29;;;;;;;;;;;;;;;25.75;61.11;101535.00;5045760;28;19909;-80
2022/07/04 11:51:55;;;;;;;;;;;;;;;25.77;61.26;101531.44;5030274;28;19920;-81
2022/07/04 11:54:21;;;;;;;;;;;;;;;25.80;60.98;101522.50;5028441;28;19908;-82
2022/07/04 11:56:46;;;;;;;;;;;;;;;25.81;61.34;101521.66;5046055;28;20176;-83
2022/07/04 11:59:15;;;;;;;;;;;;;;;25.80;61.17;101519.84;5029264;28;19909;-82
2022/07/04 12:01:43;;;;;;;;;;;;;;;25.82;61.14;101517.19;5031390;28;19913;-82
2022/07/04 12:04:33;;;;;;;;;;;;;;;25.80;60.85;101514.50;5015477;28;19921;-83
2022/07/04 12:06:58;;;;;;;;;;;;;;;25.80;60.91;101517.16;5024412;28;19992;-83
2022/07/04 12:09:24;;;;;;;;;;;;;;;25.79;61.31;101516.28;5014959;28;20074;-81
2022/07/04 12:11:56;;;;;;;;;;;;;;;25.79;61.53;101518.94;5047018;28;20018;-82
2022/07/04 12:14:21;;;;;;;;;;;;;;;25.78;61.48;101518.94;5034390;28;19912;-82
2022/07/04 12:16:47;;;;;;;;;;;;;;;25.85;61.39;101515.41;5014921;28;19931;-82
2022/07/04 12:19:12;;;;;;;;;;;;;;;25.77;60.83;101512.69;5023103;28;19916;-82
2022/07/04 12:21:38;;;;;;;;;;;;;;;25.82;60.68;101510.03;5053190;28;19930;-82
2022/07/04 12:24:07;;;;;;;;;;;;;;;25.87;60.85;101513.63;5049187;28;19909;-81
2022/07/04 12:26:32;;;;;;;;;;;;;;;25.88;60.91;101511.84;5031977;28;19950;-82
2022/07/04 12:28:58;;;;;;;;;;;;;;;25.88;60.60;101514.53;5031226;28;20364;-82
2022/07/04 12:31:40;;;;;;;;;;;;;;;25.84;60.87;101516.28;5026649;28;19912;-82
2022/07/04 12:34:13;;;;;;;;;;;;;;;25.87;61.01;101504.72;5035352;28;19989;-82
2022/07/04 12:36:48;;;;;;;;;;;;;;;25.84;60.99;101510.94;5049431;28;19912;-82
2022/07/04 12:39:33;;;;;;;;;;;;;;;25.89;61.08;101514.56;5051878;28;20020;-82
2022/07/04 12:42:15;;;;;;;;;;;;;;;25.87;61.03;101507.41;5053249;28;19967;-82
2022/07/04 12:44:42;;;;;;;;;;;;;;;25.91;60.96;101515.47;5053309;28;19908;-81
2022/07/04 12:47:07;;;;;;;;;;;;;;;25.91;61.09;101504.75;5019437;28;19956;-81
2022/07/04 12:49:33;;;;;;;;;;;;;;;25.88;61.25;101514.53;5048393;28;20035;-81
2022/07/04 12:52:06;;;;;;;;;;;;;;;25.92;61.01;101517.25;5034542;28;19920;-82
2022/07/04 12:54:31;;;;;;;;;;;;;;;25.92;60.91;101514.56;5015710;28;19916;-83
2022/07/04 12:57:07;;;;;;;;;;;;;;;25.93;61.04;101508.34;5025483;28;19909;-83